Latest Weather Observations for Toowoomba

IDQ60901

Issued at 2:05 pm EST Monday 24 November 2014 (issued every 10 minutes, with the page automatically refreshed every 10 minutes)

About weather observations | Map of Brisbane area stations | Latest observations for Brisbane area | Other Formats
Station Details ID: 041529 Name: TOOWOOMBA AIRPORT Lat: -27.54 Lon: 151.91 Height: 640.9 m
Data from the previous 72 hours. | See also: Recent months at Toowoomba
Date/Time
EST
Tmp

°C
App
Tmp
°C
Dew
Point
°C
Rel
Hum
%
Delta-T

°C
Wind Press
QNH
hPa
Press
MSL
hPa
Rain
since
9 am
mm
Dir
 
Spd
km/h
Gust
km/h
Spd
kts
Gust
kts
24/02:00pm 30.5 28.6 11.9 31 11.2 S 13 17 7 9 1016.7 - 0.0
24/01:30pm 31.1 29.5 12.9 32 11.1 E 13 22 7 12 1017.4 - 0.0
24/01:00pm 30.3 29.1 12.7 34 10.7 ENE 11 24 6 13 1017.9 - 0.0
24/12:30pm 29.4 27.1 11.9 34 10.5 E 15 22 8 12 1018.3 - 0.0
24/12:00pm 28.6 26.9 12.5 37 9.7 ENE 13 20 7 11 1019.0 1016.3 0.0
24/11:30am 28.0 27.5 13.9 42 8.6 NE 9 13 5 7 1019.6 - 0.0
24/11:00am 27.7 25.7 14.0 43 8.4 N 17 24 9 13 1019.9 - 0.0
24/10:30am 27.3 26.3 15.6 48 7.3 NNW 15 28 8 15 1020.5 - 0.0
24/10:00am 26.2 24.4 15.6 52 6.6 NNW 19 24 10 13 1020.7 - 0.0
24/09:30am 24.4 23.5 14.8 55 5.9 N 13 24 7 13 1021.1 - 0.0
24/09:00am 24.5 23.4 15.4 57 5.6 N 15 24 8 13 1021.1 1018.5 0.0
24/08:30am 23.0 21.9 15.3 62 4.7 N 15 22 8 12 1021.3 - 0.0
24/08:00am 22.2 20.9 15.8 67 4.0 NNE 17 24 9 13 1021.5 - 0.0
24/07:30am 22.0 20.9 16.3 70 3.5 N 17 24 9 13 1021.4 - 0.0
24/07:25am 21.9 20.9 16.6 72 3.3 N 17 22 9 12 1021.3 - 0.0
24/07:00am 20.5 18.7 16.1 76 2.7 N 20 24 11 13 1021.2 - 0.0
24/06:30am 19.9 19.2 16.3 80 2.2 NE 15 22 8 12 1020.9 - 0.0
24/06:00am 19.3 18.7 16.7 85 1.6 NE 15 24 8 13 1020.6 1017.9 0.0
24/05:30am 18.9 18.1 17.0 89 1.2 NE 17 22 9 12 1020.1 - 0.0
24/05:00am 19.0 17.7 17.3 90 1.1 ENE 20 28 11 15 1019.6 - 0.0
24/04:30am 19.1 17.9 17.6 91 0.9 ENE 20 26 11 14 1019.4 - 0.0
24/04:00am 19.2 18.4 18.0 93 0.8 ENE 19 24 10 13 1019.3 - 0.0
24/03:30am 19.2 18.4 18.0 93 0.8 E 19 28 10 15 1019.2 - 0.0
24/03:00am 19.1 18.1 17.9 93 0.8 E 20 24 11 13 1019.3 1016.6 0.0
24/02:33am 19.1 18.1 17.9 93 0.8 E 20 28 11 15 1019.2 - 0.0
24/02:30am 19.1 17.6 17.8 92 0.8 E 22 28 12 15 1019.2 - 0.0
24/02:00am 19.2 18.1 17.3 89 1.2 E 19 22 10 12 1019.3 - 0.0
24/01:30am 19.3 18.5 17.1 87 1.4 E 17 24 9 13 1019.6 - 0.0
24/01:00am 19.7 17.5 16.9 84 1.7 E 24 30 13 16 1019.3 - 0.0
24/12:30am 20.2 18.3 16.8 81 2.1 E 22 28 12 15 1019.4 - 0.0
24/12:00am 20.7 18.8 16.7 78 2.5 E 22 26 12 14 1019.7 1017.1 0.0
 
Date/Time
EST
Tmp

°C
App
Tmp
°C
Dew
Point
°C
Rel
Hum
%
Delta-T

°C
Wind Press
QNH
hPa
Press
MSL
hPa
Rain
since
9 am
mm
Dir
 
Spd
km/h
Gust
km/h
Spd
kts
Gust
kts
23/11:30pm 21.2 20.2 16.6 75 2.9 E 17 24 9 13 1019.7 - 0.0
23/11:00pm 21.7 20.7 16.6 73 3.2 E 17 22 9 12 1019.7 - 0.0
23/10:30pm 22.3 21.3 16.6 70 3.6 E 17 24 9 13 1019.8 - 0.0
23/10:00pm 23.0 21.5 16.8 68 3.9 E 20 26 11 14 1019.6 - 0.0
23/09:30pm 23.5 21.7 17.0 67 4.1 E 22 28 12 15 1019.5 - 0.0
23/09:00pm 23.9 22.1 16.9 65 4.4 E 22 28 12 15 1019.6 1016.9 0.0
23/08:30pm 24.7 22.6 17.2 63 4.8 E 24 30 13 16 1019.5 - 0.0
23/08:00pm 25.3 23.4 17.7 62 4.9 E 24 32 13 17 1019.2 - 0.0
23/07:30pm 25.9 23.1 18.1 62 5.1 E 30 35 16 19 1018.5 - 0.0
23/07:00pm 26.7 24.7 18.3 60 5.5 E 26 32 14 17 1018.0 - 0.0
23/06:30pm 28.1 26.9 18.5 56 6.3 E 22 26 12 14 1017.6 - 0.0
23/06:00pm 29.4 28.2 18.5 52 7.2 E 22 26 12 14 1017.5 1014.8 0.0
23/05:30pm 31.4 29.9 16.2 40 9.8 ENE 19 24 10 13 1016.8 - 0.0
23/05:00pm 32.0 30.2 15.9 38 10.3 ENE 20 28 11 15 1016.6 - 0.0
23/04:30pm 32.9 30.6 15.8 35 11.0 ENE 22 28 12 15 1016.2 - 0.0
23/04:00pm 33.3 31.5 17.0 37 10.6 E 22 32 12 17 1016.4 - 0.0
23/03:30pm 33.6 32.2 16.9 37 10.9 E 20 32 11 17 1016.6 - 0.0
23/03:00pm 33.3 32.0 15.8 35 11.2 E 17 24 9 13 1016.8 1014.1 0.0
23/02:30pm 33.9 34.2 18.0 39 10.5 E 13 26 7 14 1017.2 - 0.0
23/02:00pm 33.1 32.4 17.3 39 10.3 E 17 26 9 14 1017.5 - 0.0
23/01:30pm 32.8 32.0 17.0 38 10.3 E 17 26 9 14 1018.0 - 0.0
23/01:00pm 32.8 32.3 17.8 40 9.9 E 17 30 9 16 1018.3 - 0.0
23/12:30pm 32.1 31.8 18.3 44 9.1 E 17 28 9 15 1018.9 - 0.0
23/12:00pm 31.6 32.3 18.9 47 8.4 NE 13 28 7 15 1019.4 1016.7 0.0
23/11:30am 31.2 30.5 18.2 46 8.6 E 19 22 10 12 1019.9 - 0.0
23/11:00am 30.5 31.5 18.6 49 7.9 NNE 11 24 6 13 1020.4 - 0.0
23/10:30am 29.6 29.6 17.1 47 8.1 NNE 13 20 7 11 1020.7 - 0.0
23/10:00am 28.5 28.1 17.1 50 7.3 NNW 15 20 8 11 1020.9 - 0.0
23/09:30am 27.9 28.0 17.4 52 6.8 NNE 13 19 7 10 1021.2 - 0.0
23/09:00am 27.0 27.0 17.2 55 6.3 NE 13 19 7 10 1021.1 1018.5 0.0
23/08:30am 25.6 25.5 17.8 62 5.0 NNE 15 22 8 12 1021.2 - 0.0
23/08:00am 24.3 24.1 17.5 66 4.3 N 15 22 8 12 1021.1 - 0.0
23/07:30am 23.5 24.0 17.5 69 3.8 NE 11 17 6 9 1021.1 - 0.0
23/07:00am 22.0 22.3 18.8 82 2.1 NE 15 20 8 11 1021.0 - 0.0
23/06:30am 21.9 22.5 19.5 86 1.6 ENE 15 20 8 11 1020.4 - 0.0
23/06:00am 21.0 21.9 19.3 90 1.1 ENE 13 17 7 9 1020.1 1017.5 0.0
23/05:53am 20.7 21.6 19.2 91 1.0 ENE 13 19 7 10 1020.0 - 0.0
23/05:30am 20.5 21.4 19.3 93 0.8 NE 13 17 7 9 1019.7 - 0.0
23/05:02am 20.3 21.6 19.3 94 0.6 ENE 11 15 6 8 1019.4 - 0.0
23/05:00am 20.3 21.6 19.3 94 0.6 ENE 11 15 6 8 1019.4 - 0.0
23/04:51am 20.2 21.2 19.4 95 0.5 ENE 13 17 7 9 1019.3 - 0.0
23/04:30am 20.3 20.9 19.5 95 0.5 ENE 15 20 8 11 1019.0 - 0.0
23/04:26am 20.3 21.0 19.6 96 0.5 ENE 15 20 8 11 1018.9 - 0.0
23/04:00am 20.4 20.8 19.9 97 0.3 ENE 17 20 9 11 1018.3 - 0.0
23/03:30am 20.5 21.3 19.8 96 0.5 ENE 15 19 8 10 1018.1 - 0.0
23/03:19am 20.6 21.0 19.9 96 0.5 ENE 17 22 9 12 1018.0 - 0.0
23/03:00am 20.7 20.8 19.9 95 0.5 E 19 20 10 11 1017.7 1015.0 0.0
23/02:49am 20.7 20.8 19.9 95 0.5 E 19 22 10 12 1017.7 - 0.0
23/02:30am 20.8 21.3 20.0 95 0.5 E 17 24 9 13 1017.5 - 0.0
23/02:29am 20.8 21.3 20.0 95 0.5 E 17 24 9 13 1017.5 - 0.0
23/02:00am 20.7 20.2 19.9 95 0.5 ENE 22 28 12 15 1017.5 - 0.0
23/01:30am 21.0 20.8 19.8 93 0.8 E 20 28 11 15 1017.7 - 0.0
23/01:27am 21.0 20.8 19.8 93 0.8 E 20 28 11 15 1017.6 - 0.0
23/01:00am 21.2 20.6 19.8 92 0.9 E 22 28 12 15 1017.6 - 0.0
23/12:30am 21.6 21.5 19.9 90 1.1 ENE 20 26 11 14 1018.0 - 0.0
23/12:00am 22.1 21.9 19.8 87 1.5 E 20 24 11 13 1018.2 1015.5 0.0
 
Date/Time
EST
Tmp

°C
App
Tmp
°C
Dew
Point
°C
Rel
Hum
%
Delta-T

°C
Wind Press
QNH
hPa
Press
MSL
hPa
Rain
since
9 am
mm
Dir
 
Spd
km/h
Gust
km/h
Spd
kts
Gust
kts
22/11:30pm 22.6 21.7 19.9 85 1.8 E 24 32 13 17 1018.1 - 0.0
22/11:00pm 23.1 23.3 20.2 84 1.9 ENE 19 28 10 15 1018.3 - 0.0
22/10:30pm 23.3 22.9 20.2 83 2.1 E 22 28 12 15 1018.1 - 0.0
22/10:00pm 23.7 22.6 20.2 81 2.3 E 26 33 14 18 1018.2 - 0.0
22/09:30pm 24.2 22.7 20.3 79 2.6 E 28 32 15 17 1018.0 - 0.0
22/09:00pm 24.8 24.1 20.3 76 3.0 E 24 32 13 17 1017.9 1015.2 0.0
22/08:30pm 25.5 24.4 20.3 73 3.5 E 26 32 14 17 1017.5 - 0.0
22/08:00pm 26.3 25.7 20.4 70 4.0 E 24 32 13 17 1017.4 - 0.0
22/07:30pm 27.5 27.6 20.3 65 4.8 E 20 26 11 14 1017.0 - 0.0
22/07:00pm 29.0 29.0 19.0 54 6.6 ENE 17 24 9 13 1016.4 - 0.0
22/06:30pm 30.0 29.1 16.8 45 8.5 E 17 20 9 11 1016.0 - 0.0
22/06:00pm 30.9 30.8 16.9 43 9.1 ENE 13 17 7 9 1015.7 1013.0 0.0
22/05:30pm 31.2 30.8 17.1 42 9.2 NE 15 24 8 13 1015.2 - 0.0
22/05:00pm 32.2 30.4 16.1 38 10.3 NNE 20 26 11 14 1014.8 - 0.0
22/04:30pm 34.7 33.6 11.8 25 13.9 NNW 9 17 5 9 1014.6 - 0.0
22/04:00pm 35.2 35.1 13.9 27 13.4 W 7 17 4 9 1014.6 - 0.0
22/03:30pm 35.2 34.6 13.4 27 13.6 WSW 9 17 5 9 1014.4 - 0.0
22/03:00pm 34.1 33.1 14.6 31 12.3 W 13 20 7 11 1014.7 1012.0 0.0
22/02:30pm 33.7 33.8 16.5 35 11.2 NNW 11 22 6 12 1015.0 - 0.0
22/02:00pm 33.4 33.2 15.8 34 11.3 NNW 11 19 6 10 1015.7 - 0.0
22/01:30pm 33.3 34.7 18.6 41 9.8 N 9 19 5 10 1015.9 - 0.0
22/01:00pm 32.3 32.1 17.7 41 9.6 W 15 20 8 11 1016.3 - 0.0
22/12:30pm 31.6 32.1 17.5 43 9.2 NW 11 20 6 11 1016.8 - 0.0
22/12:00pm 30.9 31.6 17.9 45 8.5 NNW 11 22 6 12 1017.3 1014.6 0.0
22/11:30am 30.4 31.0 18.5 49 7.9 N 13 19 7 10 1017.9 - 0.0
22/11:00am 29.8 29.5 19.2 53 7.1 NNW 19 24 10 13 1018.3 - 0.0
22/10:30am 29.1 29.9 19.1 54 6.6 NNW 13 22 7 12 1018.5 - 0.0
22/10:00am 27.8 28.6 19.1 59 5.8 W 13 19 7 10 1018.8 - 0.0
22/09:30am 27.1 27.5 18.9 61 5.4 WNW 15 22 8 12 1019.1 - 0.0
22/09:00am 25.8 24.6 18.5 64 4.8 NW 22 30 12 16 1019.1 1016.4 0.4
22/08:30am 25.5 26.6 19.6 70 3.9 NNW 13 19 7 10 1019.0 - 0.4
22/08:00am 23.9 23.9 18.1 70 3.7 N 15 20 8 11 1019.0 - 0.4
22/07:30am 23.0 23.3 17.9 73 3.3 N 13 19 7 10 1018.9 - 0.4
22/07:00am 23.1 23.8 18.0 73 3.3 N 11 17 6 9 1018.7 - 0.4
22/06:30am 22.9 22.9 18.0 74 3.1 N 15 20 8 11 1018.1 - 0.4
22/06:00am 22.0 23.5 18.8 82 2.1 ENE 9 15 5 8 1017.9 1015.2 0.4
22/05:30am 21.5 23.0 18.9 85 1.7 ENE 9 13 5 7 1017.5 - 0.4
22/05:00am 21.4 21.4 17.2 77 2.6 N 13 17 7 9 1017.0 - 0.4
22/04:30am 21.6 21.8 17.6 78 2.5 N 13 20 7 11 1016.6 - 0.4
22/04:00am 21.6 22.9 18.4 82 2.1 NNE 9 13 5 7 1016.3 - 0.4
22/03:30am 22.1 22.9 18.1 78 2.6 NE 11 17 6 9 1015.8 - 0.4
22/03:00am 22.2 22.5 18.0 77 2.7 N 13 19 7 10 1015.6 1012.9 0.4
22/02:30am 22.2 22.6 18.2 78 2.6 NNE 13 17 7 9 1015.6 - 0.4
22/02:00am 22.2 22.2 18.2 78 2.6 NNE 15 22 8 12 1015.6 - 0.4
22/01:30am 22.5 22.8 18.7 79 2.5 NNE 15 20 8 11 1015.6 - 0.4
22/01:00am 22.7 23.9 19.1 80 2.3 N 11 17 6 9 1015.7 - 0.4
22/12:30am 21.9 23.6 20.2 90 1.1 ENE 11 15 6 8 1016.0 - 0.4
22/12:00am 22.5 23.4 20.0 86 1.6 NE 15 19 8 10 1016.2 1013.5 0.4
 
Date/Time
EST
Tmp

°C
App
Tmp
°C
Dew
Point
°C
Rel
Hum
%
Delta-T

°C
Wind Press
QNH
hPa
Press
MSL
hPa
Rain
since
9 am
mm
Dir
 
Spd
km/h
Gust
km/h
Spd
kts
Gust
kts
21/11:30pm 24.0 24.9 19.3 75 3.1 NE 13 20 7 11 1015.9 - 0.4
21/11:00pm 23.8 25.6 19.5 77 2.8 N 9 17 5 9 1016.1 - 0.4
21/10:30pm 23.4 25.0 20.7 85 1.8 ENE 13 19 7 10 1017.0 - 0.4
21/10:00pm 23.9 25.3 20.4 81 2.3 E 13 17 7 9 1017.8 - 0.2
21/09:30pm 24.0 25.3 20.1 79 2.6 NNE 13 19 7 10 1017.3 - 0.2
21/09:00pm 24.1 25.0 18.5 71 3.6 N 11 15 6 8 1017.7 1015.0 0.2
21/08:30pm 25.1 23.8 17.3 62 5.0 S 20 33 11 18 1017.7 - 0.0
21/08:00pm 26.8 26.5 17.3 56 6.1 ENE 15 20 8 11 1016.0 - 0.0
21/07:30pm 26.8 25.6 17.0 55 6.3 NE 19 22 10 12 1014.9 - 0.0
21/07:00pm 27.0 26.5 16.9 54 6.5 NE 15 19 8 10 1015.0 - 0.0
21/06:30pm 28.4 27.8 16.7 49 7.5 NE 15 19 8 10 1014.5 - 0.0
21/06:00pm 29.3 27.7 16.5 46 8.2 NE 20 26 11 14 1014.2 1011.5 0.0
21/05:30pm 30.4 29.4 15.7 41 9.3 N 15 20 8 11 1013.9 - 0.0
21/05:00pm 31.7 31.1 15.6 37 10.3 N 13 15 7 8 1013.8 - 0.0
21/04:30pm 31.0 29.2 15.4 38 9.9 NNW 19 22 10 12 1013.5 - 0.0
21/04:00pm 31.2 31.1 16.0 40 9.7 ENE 11 17 6 9 1013.7 - 0.0
21/03:30pm 31.3 30.9 15.3 38 10.1 N 11 17 6 9 1014.0 - 0.0
21/03:00pm 31.2 31.1 16.0 40 9.7 ENE 11 15 6 8 1014.2 1011.5 0.0
21/02:30pm 31.8 30.1 15.7 37 10.3 N 19 22 10 12 1014.5 - 0.0

Latest Capital City Observations: Canberra | Sydney | Melbourne | Brisbane | Adelaide | Perth | Hobart | Darwin

Other Formats:

Comma delimited format used in spreadsheet applications
http://www.bom.gov.au/fwo/IDQ60901/IDQ60901.95551.axf

JavaScript Object Notation format (JSON) in row-major order
http://www.bom.gov.au/fwo/IDQ60901/IDQ60901.95551.json